Time;durP1;ratioP1;P1;durP2;ratioP2;P2;SDS_P1;SDS_P2;PMS_P1;PMS_P2;Temp;Humidity;BMP_temperature;BMP_pressure;BME280_temperature;BME280_humidity;BME280_pressure;Samples;Min_cycle;Max_cycle;Signal;HPM_P1;HPM_P2
2022/06/30 00:01:59;;;;;;;3.50;3.30;;;16.90;99.90;;;;;;494038;241;28909;-70
2022/06/30 00:04:00;;;;;;;3.97;3.63;;;16.90;99.90;;;;;;494061;241;28850;-70
2022/06/30 00:06:01;;;;;;;4.03;3.83;;;17.00;99.90;;;;;;494048;241;28891;-71
2022/06/30 00:08:02;;;;;;;3.30;3.10;;;17.00;99.90;;;;;;494003;241;29347;-70
2022/06/30 00:10:04;;;;;;;3.50;3.30;;;17.00;99.90;;;;;;493943;241;29371;-70
2022/06/30 00:12:05;;;;;;;4.40;4.00;;;16.90;99.90;;;;;;494002;241;29521;-73
2022/06/30 00:14:06;;;;;;;3.87;3.67;;;16.90;99.90;;;;;;494024;241;29248;-70
2022/06/30 00:16:07;;;;;;;4.40;3.17;;;17.00;99.90;;;;;;494026;241;28820;-71
2022/06/30 00:18:09;;;;;;;8.00;3.60;;;16.80;99.90;;;;;;494022;239;28877;-70
2022/06/30 00:20:10;;;;;;;3.70;3.40;;;16.80;99.90;;;;;;494019;241;28933;-70
2022/06/30 00:22:11;;;;;;;3.07;2.97;;;16.90;99.90;;;;;;494067;241;28939;-73
2022/06/30 00:24:12;;;;;;;3.77;3.47;;;16.90;99.90;;;;;;494047;241;28942;-69
2022/06/30 00:26:14;;;;;;;3.43;3.17;;;16.90;99.90;;;;;;494057;241;28827;-70
2022/06/30 00:28:15;;;;;;;4.30;4.00;;;16.90;99.90;;;;;;494062;241;28793;-70
2022/06/30 00:30:17;;;;;;;3.83;3.37;;;16.90;99.90;;;;;;494036;241;28900;-70
2022/06/30 00:32:17;;;;;;;4.80;3.80;;;16.80;99.90;;;;;;493917;241;28891;-73
2022/06/30 00:34:19;;;;;;;3.70;3.50;;;16.80;99.90;;;;;;493872;241;29245;-70
2022/06/30 00:36:20;;;;;;;3.50;3.30;;;16.80;99.90;;;;;;494036;241;29336;-70
2022/06/30 00:38:21;;;;;;;3.47;3.27;;;16.80;99.90;;;;;;494066;241;29668;-70
2022/06/30 00:40:22;;;;;;;3.60;3.30;;;16.80;99.90;;;;;;494025;241;28824;-70
2022/06/30 00:42:24;;;;;;;3.70;3.50;;;16.80;99.90;;;;;;494075;241;28840;-73
2022/06/30 00:44:25;;;;;;;3.20;3.00;;;16.70;99.90;;;;;;494057;241;28787;-70
2022/06/30 00:46:26;;;;;;;3.47;3.27;;;16.80;99.90;;;;;;494069;241;28904;-70
2022/06/30 00:48:27;;;;;;;3.67;3.40;;;16.70;99.90;;;;;;494083;241;28868;-70
2022/06/30 00:50:29;;;;;;;3.00;2.90;;;16.70;99.90;;;;;;494058;241;28829;-70
2022/06/30 00:52:30;;;;;;;3.50;3.30;;;16.60;99.90;;;;;;493914;241;28853;-71
2022/06/30 00:54:31;;;;;;;3.40;3.20;;;16.60;99.90;;;;;;494036;241;28877;-70
2022/06/30 00:56:32;;;;;;;3.33;3.10;;;16.60;99.90;;;;;;494030;241;28878;-71
2022/06/30 00:58:34;;;;;;;3.20;3.00;;;16.50;99.90;;;;;;494005;241;29394;-70
2022/06/30 01:00:35;;;;;;;3.03;2.80;;;16.50;99.90;;;;;;494061;241;29261;-70
2022/06/30 01:02:36;;;;;;;3.43;3.23;;;16.50;99.90;;;;;;494057;241;29317;-73
2022/06/30 01:04:37;;;;;;;3.27;3.07;;;16.30;99.90;;;;;;494072;241;29277;-70
2022/06/30 01:06:39;;;;;;;3.53;3.23;;;16.40;99.90;;;;;;494066;241;28824;-70
2022/06/30 01:08:40;;;;;;;3.33;3.13;;;16.50;99.90;;;;;;494061;241;28805;-70
2022/06/30 01:13:01;;;;;;;3.67;3.37;;;16.40;99.90;;;;;;494093;241;29306;-70
2022/06/30 01:15:02;;;;;;;3.60;3.30;;;16.40;99.90;;;;;;493945;241;29099;-74
2022/06/30 01:17:03;;;;;;;3.10;2.90;;;16.30;99.90;;;;;;494062;241;28785;-70
2022/06/30 01:19:05;;;;;;;3.23;3.00;;;16.20;99.90;;;;;;494064;241;28831;-71
2022/06/30 01:21:06;;;;;;;5.00;3.13;;;16.20;99.90;;;;;;494078;241;28786;-70
2022/06/30 01:23:08;;;;;;;3.53;3.33;;;16.30;99.90;;;;;;494054;241;28812;-70
2022/06/30 01:25:08;;;;;;;3.57;3.37;;;16.30;99.90;;;;;;494052;241;29313;-70
2022/06/30 01:27:10;;;;;;;3.70;3.50;;;16.20;99.90;;;;;;494085;241;28803;-70
2022/06/30 01:29:11;;;;;;;4.23;4.03;;;16.30;99.90;;;;;;494042;241;28840;-70
2022/06/30 01:31:12;;;;;;;3.40;3.20;;;16.20;99.90;;;;;;494029;241;28833;-70
2022/06/30 01:33:13;;;;;;;3.80;3.53;;;16.30;99.90;;;;;;494006;241;29280;-70
2022/06/30 01:35:15;;;;;;;3.67;3.47;;;16.20;99.90;;;;;;493969;241;29443;-72
2022/06/30 01:37:16;;;;;;;3.50;3.30;;;16.20;99.90;;;;;;494055;241;29252;-70
2022/06/30 01:39:17;;;;;;;3.47;3.27;;;16.10;99.90;;;;;;493866;241;29461;-71
2022/06/30 01:41:18;;;;;;;3.20;3.00;;;16.10;99.90;;;;;;493945;241;28829;-70
2022/06/30 01:43:20;;;;;;;3.50;3.30;;;16.10;99.90;;;;;;494057;241;28804;-70
2022/06/30 01:45:21;;;;;;;3.90;3.70;;;16.00;99.90;;;;;;494062;237;28939;-73
2022/06/30 01:47:22;;;;;;;3.40;3.20;;;16.00;99.90;;;;;;494064;241;28912;-70
2022/06/30 01:49:23;;;;;;;3.10;3.00;;;16.00;99.90;;;;;;494046;241;28851;-71
2022/06/30 01:51:25;;;;;;;3.67;3.47;;;15.90;99.90;;;;;;494057;241;28899;-70
2022/06/30 01:53:26;;;;;;;3.57;3.37;;;15.90;99.90;;;;;;493878;241;28802;-70
2022/06/30 01:55:27;;;;;;;3.33;3.13;;;15.90;99.90;;;;;;494059;241;28883;-72
2022/06/30 01:57:28;;;;;;;3.57;3.27;;;15.90;99.90;;;;;;494051;241;29268;-70
2022/06/30 01:59:30;;;;;;;3.20;3.00;;;15.90;99.90;;;;;;494053;241;29390;-70
2022/06/30 02:01:31;;;;;;;3.37;3.17;;;15.90;99.90;;;;;;494040;241;29362;-70
2022/06/30 02:03:32;;;;;;;3.80;3.60;;;15.80;99.90;;;;;;494020;241;29409;-71
2022/06/30 02:05:33;;;;;;;3.60;3.40;;;15.80;99.90;;;;;;494021;240;28843;-72
2022/06/30 02:07:36;;;;;;;3.00;2.80;;;15.80;99.90;;;;;;494033;241;28805;-70
2022/06/30 02:09:36;;;;;;;3.57;3.37;;;15.80;99.90;;;;;;493984;241;28832;-70
2022/06/30 02:11:37;;;;;;;3.50;3.30;;;15.70;99.90;;;;;;494038;241;28819;-70
2022/06/30 02:13:38;;;;;;;3.60;3.40;;;15.80;99.90;;;;;;494051;241;29193;-71
2022/06/30 02:15:40;;;;;;;3.90;3.60;;;15.80;99.90;;;;;;494049;241;28923;-71
2022/06/30 02:17:41;;;;;;;3.20;3.00;;;15.80;99.90;;;;;;493984;241;28797;-70
2022/06/30 02:19:42;;;;;;;3.03;2.83;;;15.80;99.90;;;;;;494048;241;28832;-70
2022/06/30 02:21:43;;;;;;;3.20;3.10;;;15.80;99.90;;;;;;494015;241;28890;-70
2022/06/30 02:23:45;;;;;;;3.93;3.73;;;15.80;99.90;;;;;;494024;241;29368;-70
2022/06/30 02:25:46;;;;;;;3.27;3.10;;;15.80;99.90;;;;;;494042;241;29369;-71
2022/06/30 02:27:47;;;;;;;3.87;3.67;;;15.80;99.90;;;;;;494036;241;29362;-70
2022/06/30 02:29:48;;;;;;;3.50;3.30;;;15.70;99.90;;;;;;494037;241;28912;-70
2022/06/30 02:31:50;;;;;;;3.70;3.50;;;15.60;99.90;;;;;;494015;241;28851;-70
2022/06/30 02:33:51;;;;;;;3.60;3.40;;;15.60;99.90;;;;;;494087;241;28793;-70
2022/06/30 02:35:52;;;;;;;3.47;3.27;;;15.50;99.90;;;;;;493969;239;28948;-71
2022/06/30 02:37:53;;;;;;;3.87;3.50;;;15.50;99.90;;;;;;494072;241;28935;-71
2022/06/30 02:39:55;;;;;;;3.77;3.40;;;15.50;99.90;;;;;;494068;241;28919;-71
2022/06/30 02:41:56;;;;;;;3.47;3.27;;;15.50;99.90;;;;;;494053;241;28841;-70
2022/06/30 02:43:58;;;;;;;3.57;3.37;;;15.50;99.90;;;;;;494063;241;28802;-71
2022/06/30 02:45:59;;;;;;;3.23;3.03;;;15.50;99.90;;;;;;494046;241;28820;-72
2022/06/30 02:48:00;;;;;;;3.80;3.50;;;15.50;99.90;;;;;;494072;241;29410;-70
2022/06/30 02:50:03;;;;;;;4.50;3.27;;;15.50;99.90;;;;;;494097;241;29478;-71
2022/06/30 02:52:02;;;;;;;3.63;3.33;;;15.40;99.90;;;;;;493945;241;29446;-71
2022/06/30 02:54:04;;;;;;;3.63;3.43;;;15.30;99.90;;;;;;494070;241;29263;-71
2022/06/30 02:56:05;;;;;;;3.50;3.30;;;15.40;99.90;;;;;;494079;241;28822;-72
2022/06/30 02:58:06;;;;;;;4.03;3.10;;;15.40;99.90;;;;;;494047;241;28899;-70
2022/06/30 03:00:07;;;;;;;3.77;3.40;;;15.40;99.90;;;;;;494052;239;28825;-71
2022/06/30 03:02:09;;;;;;;3.60;3.33;;;15.40;99.90;;;;;;494061;237;28809;-70
2022/06/30 03:04:10;;;;;;;3.63;3.33;;;15.50;99.90;;;;;;494071;241;28786;-70
2022/06/30 03:06:11;;;;;;;3.53;3.33;;;15.50;99.90;;;;;;494059;241;28829;-71
2022/06/30 03:08:12;;;;;;;3.43;3.13;;;15.50;99.90;;;;;;494069;241;28836;-71
2022/06/30 03:10:14;;;;;;;4.07;3.77;;;15.40;99.90;;;;;;494073;237;28825;-71
2022/06/30 03:12:15;;;;;;;4.10;3.80;;;15.40;99.90;;;;;;493960;241;28833;-73
2022/06/30 03:14:16;;;;;;;3.43;3.23;;;15.40;99.90;;;;;;494047;241;29326;-71
2022/06/30 03:16:20;;;;;;;3.90;3.70;;;15.30;99.90;;;;;;494069;241;29302;-71
2022/06/30 03:18:21;;;;;;;3.37;3.17;;;15.30;99.90;;;;;;494057;241;28812;-71
2022/06/30 03:20:23;;;;;;;3.63;3.43;;;15.30;99.90;;;;;;494056;239;28867;-70
2022/06/30 03:22:24;;;;;;;3.43;3.23;;;15.30;99.90;;;;;;494051;241;28794;-70
2022/06/30 03:24:25;;;;;;;3.70;3.50;;;15.40;99.90;;;;;;494082;241;28835;-73
2022/06/30 03:26:26;;;;;;;3.70;3.50;;;15.40;99.90;;;;;;494087;241;29241;-70
2022/06/30 03:28:28;;;;;;;4.10;3.90;;;15.30;99.90;;;;;;494121;241;29329;-70
2022/06/30 03:30:29;;;;;;;3.50;3.30;;;15.30;99.90;;;;;;494051;241;29346;-70
2022/06/30 03:32:30;;;;;;;3.70;3.40;;;15.30;99.90;;;;;;494017;241;29264;-71
2022/06/30 03:34:31;;;;;;;4.13;3.83;;;15.40;99.90;;;;;;494035;241;28832;-72
2022/06/30 03:36:33;;;;;;;3.50;3.30;;;15.40;99.90;;;;;;493989;241;28960;-71
2022/06/30 03:38:34;;;;;;;3.53;3.30;;;15.30;99.90;;;;;;494064;241;28923;-71
2022/06/30 03:40:35;;;;;;;3.50;3.30;;;15.30;99.90;;;;;;494037;237;28851;-71
2022/06/30 03:42:36;;;;;;;3.57;3.37;;;15.20;99.90;;;;;;494052;241;28861;-71
2022/06/30 03:44:39;;;;;;;3.20;3.00;;;15.30;99.90;;;;;;494061;241;29200;-73
2022/06/30 03:46:39;;;;;;;3.17;2.97;;;15.20;99.90;;;;;;494025;241;28803;-70
2022/06/30 03:48:41;;;;;;;3.50;3.17;;;15.30;99.90;;;;;;494081;241;28841;-72
2022/06/30 03:50:41;;;;;;;3.07;2.87;;;15.30;99.90;;;;;;494061;241;29266;-71
2022/06/30 03:52:43;;;;;;;3.50;3.30;;;15.30;99.90;;;;;;494029;241;29409;-71
2022/06/30 03:54:44;;;;;;;3.57;3.37;;;15.20;99.90;;;;;;494069;241;29381;-72
2022/06/30 03:56:45;;;;;;;3.57;3.37;;;15.20;99.90;;;;;;494046;241;29264;-70
2022/06/30 03:58:46;;;;;;;3.37;3.17;;;15.20;99.90;;;;;;494075;241;28829;-71
2022/06/30 04:00:48;;;;;;;3.40;3.20;;;15.20;99.90;;;;;;494070;241;28836;-71
2022/06/30 04:02:49;;;;;;;3.63;3.40;;;15.20;99.90;;;;;;494074;241;28852;-71
2022/06/30 04:04:50;;;;;;;3.50;3.30;;;15.30;99.90;;;;;;494067;241;29264;-70
2022/06/30 04:06:51;;;;;;;3.33;3.13;;;15.30;99.90;;;;;;494071;241;28895;-70
2022/06/30 04:08:53;;;;;;;3.30;3.10;;;15.30;99.90;;;;;;494025;241;28998;-71
2022/06/30 04:10:54;;;;;;;3.17;2.97;;;15.40;99.90;;;;;;494058;241;28915;-71
2022/06/30 04:12:55;;;;;;;3.50;3.20;;;15.50;99.90;;;;;;494083;241;28821;-71
2022/06/30 04:14:57;;;;;;;3.23;3.13;;;15.50;99.90;;;;;;494059;241;29366;-72
2022/06/30 04:16:59;;;;;;;3.70;3.40;;;15.40;99.90;;;;;;494071;241;29384;-70
2022/06/30 04:18:59;;;;;;;3.40;3.20;;;15.40;99.90;;;;;;493870;241;29275;-72
2022/06/30 04:21:00;;;;;;;3.77;3.57;;;15.40;99.90;;;;;;494073;241;29241;-71
2022/06/30 04:23:02;;;;;;;3.87;3.47;;;15.50;99.90;;;;;;494076;241;28822;-71
2022/06/30 04:25:03;;;;;;;3.37;3.07;;;15.60;99.90;;;;;;494041;241;28840;-73
2022/06/30 04:27:04;;;;;;;3.60;3.30;;;15.60;99.90;;;;;;494093;241;28880;-71
2022/06/30 04:29:05;;;;;;;3.43;3.23;;;15.70;99.90;;;;;;494114;241;28829;-72
2022/06/30 04:33:26;;;;;;;3.40;3.20;;;15.90;99.90;;;;;;494080;241;29265;-72
2022/06/30 04:35:27;;;;;;;3.60;3.40;;;15.90;99.90;;;;;;494089;241;29326;-73
2022/06/30 04:37:28;;;;;;;3.30;3.10;;;16.00;99.90;;;;;;494019;241;28790;-70
2022/06/30 04:39:30;;;;;;;3.43;3.23;;;16.00;99.90;;;;;;494062;241;28831;-71
2022/06/30 04:41:31;;;;;;;3.40;3.20;;;16.00;99.90;;;;;;494069;241;28879;-71
2022/06/30 04:43:32;;;;;;;2.97;2.80;;;16.00;99.90;;;;;;494040;241;28906;-72
2022/06/30 04:45:33;;;;;;;3.10;2.90;;;16.00;99.90;;;;;;494064;241;28932;-73
2022/06/30 04:47:35;;;;;;;4.70;2.90;;;16.10;99.90;;;;;;494039;241;28807;-71
2022/06/30 04:49:36;;;;;;;3.13;2.93;;;16.20;99.90;;;;;;494051;241;28846;-72
2022/06/30 04:51:37;;;;;;;4.03;2.93;;;16.20;99.90;;;;;;493992;241;28916;-71
2022/06/30 04:53:40;;;;;;;3.07;2.87;;;16.20;99.90;;;;;;494034;241;28806;-71
2022/06/30 04:55:40;;;;;;;3.30;3.10;;;16.30;99.90;;;;;;493956;241;29302;-73
2022/06/30 04:57:41;;;;;;;3.47;3.27;;;16.30;99.90;;;;;;494052;241;29265;-71
2022/06/30 04:59:42;;;;;;;3.67;3.37;;;16.40;99.90;;;;;;494039;241;29372;-71
2022/06/30 05:01:43;;;;;;;3.00;2.80;;;16.50;99.90;;;;;;494049;241;29394;-70
2022/06/30 05:03:45;;;;;;;3.40;3.20;;;16.50;99.90;;;;;;494042;241;28812;-71
2022/06/30 05:05:46;;;;;;;3.27;3.07;;;16.60;99.90;;;;;;494051;241;28880;-73
2022/06/30 05:07:47;;;;;;;3.20;3.00;;;16.60;99.90;;;;;;494076;241;28797;-70
2022/06/30 05:09:48;;;;;;;3.27;3.07;;;16.60;99.90;;;;;;493851;241;28818;-71
2022/06/30 05:11:50;;;;;;;2.73;2.60;;;16.60;99.90;;;;;;494055;241;28814;-71
2022/06/30 05:13:51;;;;;;;3.40;3.20;;;16.80;99.90;;;;;;493990;241;28840;-71
2022/06/30 05:15:52;;;;;;;3.17;2.97;;;16.80;99.90;;;;;;494062;241;29232;-73
2022/06/30 05:17:53;;;;;;;3.80;3.50;;;16.80;99.90;;;;;;494043;241;28935;-70
2022/06/30 05:19:55;;;;;;;3.50;3.30;;;16.80;99.90;;;;;;494046;241;28933;-71
2022/06/30 05:21:56;;;;;;;4.43;4.13;;;16.90;99.90;;;;;;494054;241;29345;-70
2022/06/30 05:26:29;;;;;;;3.23;3.03;;;17.00;99.90;;;;;;494076;241;29401;-73
2022/06/30 05:28:30;;;;;;;2.90;2.80;;;17.10;99.90;;;;;;494047;241;28801;-70
2022/06/30 05:30:31;;;;;;;4.33;3.93;;;17.20;99.90;;;;;;494072;241;28921;-71
2022/06/30 05:32:34;;;;;;;3.20;3.00;;;17.30;99.90;;;;;;494001;241;28860;-74
2022/06/30 05:34:34;;;;;;;3.67;3.30;;;17.30;99.90;;;;;;493960;241;28794;-71
2022/06/30 05:36:35;;;;;;;3.10;2.90;;;17.40;99.90;;;;;;494072;241;29349;-71
2022/06/30 05:38:36;;;;;;;3.10;2.90;;;17.40;99.90;;;;;;494070;241;29236;-71
2022/06/30 05:40:38;;;;;;;3.30;3.10;;;17.50;99.90;;;;;;494054;241;29340;-71
2022/06/30 05:42:39;;;;;;;2.60;2.50;;;17.50;99.90;;;;;;494055;241;28954;-73
2022/06/30 05:44:40;;;;;;;2.80;2.60;;;17.60;99.90;;;;;;494048;241;28800;-71
2022/06/30 05:46:43;;;;;;;2.90;2.70;;;17.60;99.90;;;;;;494025;241;28953;-71
2022/06/30 05:48:43;;;;;;;3.60;3.40;;;17.70;99.90;;;;;;493885;241;28834;-71
2022/06/30 05:50:44;;;;;;;2.80;2.70;;;17.70;99.90;;;;;;493954;241;28903;-71
2022/06/30 05:52:45;;;;;;;3.00;2.90;;;17.80;99.90;;;;;;493979;241;29193;-72
2022/06/30 05:54:46;;;;;;;3.10;2.90;;;17.80;99.90;;;;;;494058;241;28795;-71
2022/06/30 05:56:48;;;;;;;3.20;3.00;;;17.90;99.90;;;;;;494081;241;28926;-71
2022/06/30 05:58:49;;;;;;;3.00;2.90;;;18.00;99.90;;;;;;494070;241;28806;-70
2022/06/30 06:00:50;;;;;;;3.17;3.00;;;18.10;99.90;;;;;;493952;241;29290;-71
2022/06/30 06:02:51;;;;;;;2.77;2.57;;;18.20;99.90;;;;;;493998;239;29308;-75
2022/06/30 06:04:53;;;;;;;2.80;2.60;;;18.20;99.90;;;;;;494090;241;29255;-71
2022/06/30 06:06:54;;;;;;;3.20;2.90;;;18.30;99.90;;;;;;494064;241;29344;-71
2022/06/30 06:08:55;;;;;;;3.07;2.90;;;18.40;99.90;;;;;;494069;241;28797;-71
2022/06/30 06:10:56;;;;;;;2.80;2.70;;;18.60;99.90;;;;;;494072;241;28917;-71
2022/06/30 06:12:58;;;;;;;3.13;2.93;;;18.70;99.90;;;;;;494074;241;28887;-73
2022/06/30 06:14:59;;;;;;;2.77;2.67;;;18.80;99.90;;;;;;494076;241;28872;-71
2022/06/30 06:17:00;;;;;;;2.90;2.60;;;19.00;99.90;;;;;;494053;241;28857;-71
2022/06/30 06:19:01;;;;;;;3.00;2.90;;;19.20;99.90;;;;;;494069;241;28805;-70
2022/06/30 06:21:03;;;;;;;3.00;2.80;;;19.30;99.90;;;;;;494009;239;28830;-71
2022/06/30 06:23:04;;;;;;;2.60;2.50;;;19.40;99.90;;;;;;494081;241;28891;-73
2022/06/30 06:25:05;;;;;;;3.30;3.10;;;19.60;99.90;;;;;;494079;241;29271;-70
2022/06/30 06:27:06;;;;;;;3.60;2.87;;;19.60;99.90;;;;;;493877;241;29674;-72
2022/06/30 06:29:11;;;;;;;2.87;2.77;;;19.50;99.90;;;;;;493387;241;29340;-71
2022/06/30 06:31:09;;;;;;;3.13;2.93;;;19.50;99.90;;;;;;493634;241;29318;-71
2022/06/30 06:33:10;;;;;;;3.17;3.00;;;19.60;99.90;;;;;;494030;241;28867;-71
2022/06/30 06:35:11;;;;;;;2.93;2.83;;;19.70;99.90;;;;;;494084;241;28786;-70
2022/06/30 06:37:13;;;;;;;3.23;3.00;;;19.80;99.90;;;;;;494070;239;28823;-71
2022/06/30 06:39:14;;;;;;;3.17;2.97;;;19.80;99.90;;;;;;494078;241;28924;-71
2022/06/30 06:41:16;;;;;;;2.80;2.60;;;19.90;99.90;;;;;;494062;241;28850;-70
2022/06/30 06:43:16;;;;;;;2.93;2.83;;;20.00;99.90;;;;;;493999;241;29304;-73
2022/06/30 06:45:18;;;;;;;2.90;2.70;;;20.20;99.90;;;;;;494067;239;28819;-71
2022/06/30 06:47:19;;;;;;;3.00;2.80;;;20.30;99.90;;;;;;494056;241;28829;-71
2022/06/30 06:49:20;;;;;;;2.80;2.63;;;20.50;99.90;;;;;;494073;241;28803;-70
2022/06/30 06:51:21;;;;;;;2.77;2.63;;;20.70;99.90;;;;;;494063;241;29312;-70
2022/06/30 06:53:23;;;;;;;3.27;3.07;;;20.80;99.90;;;;;;494023;241;29497;-73
2022/06/30 06:55:24;;;;;;;2.97;2.77;;;21.00;99.90;;;;;;494037;241;29466;-71
2022/06/30 06:57:25;;;;;;;2.60;2.50;;;21.10;99.90;;;;;;494018;241;28827;-72
2022/06/30 06:59:26;;;;;;;2.70;2.60;;;21.10;99.90;;;;;;493521;241;28879;-70
2022/06/30 07:01:28;;;;;;;2.97;2.77;;;21.20;99.90;;;;;;494022;241;28898;-71
2022/06/30 07:03:29;;;;;;;3.07;2.83;;;21.30;99.90;;;;;;494043;241;28853;-70
2022/06/30 07:05:30;;;;;;;2.73;2.63;;;21.30;99.90;;;;;;494074;241;28881;-73
2022/06/30 07:07:31;;;;;;;2.73;2.57;;;21.30;99.90;;;;;;494020;241;28848;-73
2022/06/30 07:09:34;;;;;;;3.07;2.87;;;21.40;99.90;;;;;;494062;241;28808;-71
2022/06/30 07:11:34;;;;;;;2.87;2.67;;;21.40;99.90;;;;;;494007;241;28832;-71
2022/06/30 07:13:35;;;;;;;3.23;3.00;;;21.50;99.90;;;;;;494061;241;28828;-71
2022/06/30 07:15:36;;;;;;;3.50;3.20;;;21.60;99.90;;;;;;494084;241;29329;-71
2022/06/30 07:17:38;;;;;;;2.83;2.63;;;21.60;99.90;;;;;;493953;241;29402;-72
2022/06/30 07:19:39;;;;;;;2.73;2.60;;;21.60;99.90;;;;;;494076;241;29475;-71
2022/06/30 07:21:41;;;;;;;3.10;2.90;;;21.70;99.90;;;;;;494080;241;29317;-71
2022/06/30 07:23:42;;;;;;;2.87;2.67;;;21.70;99.90;;;;;;494072;241;28870;-70
2022/06/30 07:25:43;;;;;;;2.50;2.40;;;21.80;99.90;;;;;;494053;241;28787;-71
2022/06/30 07:27:44;;;;;;;2.87;2.67;;;21.90;99.90;;;;;;494077;241;28831;-71
2022/06/30 07:29:45;;;;;;;2.30;2.20;;;22.00;99.90;;;;;;494070;241;28804;-71
2022/06/30 07:31:46;;;;;;;2.80;2.47;;;21.90;99.90;;;;;;494052;241;28846;-71
2022/06/30 07:33:48;;;;;;;2.80;2.60;;;22.00;99.90;;;;;;494051;241;28834;-74
2022/06/30 07:35:49;;;;;;;2.70;2.60;;;22.10;99.90;;;;;;494084;241;28816;-71
2022/06/30 07:37:50;;;;;;;2.43;2.23;;;22.10;99.90;;;;;;494068;241;28904;-71
2022/06/30 07:39:51;;;;;;;7.70;2.53;;;22.20;99.90;;;;;;494031;241;29355;-70
2022/06/30 07:41:53;;;;;;;2.60;2.47;;;22.20;99.90;;;;;;494077;241;29304;-72
2022/06/30 07:43:54;;;;;;;2.63;2.43;;;22.30;99.90;;;;;;494050;241;30045;-70
2022/06/30 07:45:55;;;;;;;2.53;2.43;;;22.30;99.90;;;;;;493967;241;29231;-71
2022/06/30 07:47:56;;;;;;;2.60;2.40;;;22.30;99.90;;;;;;494048;241;28823;-72
2022/06/30 07:49:58;;;;;;;2.63;2.43;;;22.50;99.90;;;;;;493988;241;28879;-71
2022/06/30 07:51:59;;;;;;;2.80;2.63;;;22.40;99.90;;;;;;494022;241;28895;-71
2022/06/30 07:54:00;;;;;;;2.70;2.33;;;22.40;99.90;;;;;;494006;241;28823;-73
2022/06/30 07:56:01;;;;;;;3.73;2.10;;;22.60;99.90;;;;;;494034;241;28891;-71
2022/06/30 07:58:03;;;;;;;2.77;2.57;;;22.50;99.90;;;;;;494006;237;28825;-72
2022/06/30 08:00:04;;;;;;;2.50;2.40;;;22.50;99.90;;;;;;494056;241;28838;-70
2022/06/30 08:02:05;;;;;;;2.37;2.27;;;22.60;99.90;;;;;;494051;241;28839;-71
2022/06/30 08:04:06;;;;;;;2.67;2.47;;;22.80;99.90;;;;;;494063;241;29321;-73
2022/06/30 08:06:08;;;;;;;2.40;2.30;;;23.00;99.90;;;;;;493955;241;29352;-71
2022/06/30 08:08:09;;;;;;;5.20;2.40;;;23.00;99.90;;;;;;494053;241;29378;-71
2022/06/30 08:10:11;;;;;;;1.90;1.80;;;23.20;99.90;;;;;;494086;241;29262;-70
2022/06/30 08:12:12;;;;;;;2.50;2.30;;;23.30;99.90;;;;;;494046;241;28820;-71
2022/06/30 08:14:13;;;;;;;2.60;2.40;;;23.30;99.90;;;;;;493981;241;28847;-73
2022/06/30 08:16:15;;;;;;;2.70;2.50;;;23.30;99.90;;;;;;493990;241;28942;-71
2022/06/30 08:18:15;;;;;;;2.50;2.30;;;23.30;99.90;;;;;;493947;241;28829;-71
2022/06/30 08:20:17;;;;;;;2.50;2.30;;;23.30;99.90;;;;;;494027;241;28819;-71
2022/06/30 08:22:18;;;;;;;2.50;2.30;;;23.50;99.90;;;;;;494047;241;28820;-72
2022/06/30 08:24:19;;;;;;;2.80;2.60;;;23.40;99.90;;;;;;494067;241;28883;-72
2022/06/30 08:26:20;;;;;;;2.40;2.30;;;23.60;99.90;;;;;;494073;241;28794;-71
2022/06/30 08:28:22;;;;;;;3.10;2.80;;;23.60;99.90;;;;;;494045;241;28897;-71
2022/06/30 08:30:23;;;;;;;2.70;2.50;;;23.60;99.90;;;;;;494011;241;30103;-71
2022/06/30 08:32:24;;;;;;;2.93;2.60;;;23.80;99.90;;;;;;494047;241;29454;-71
2022/06/30 08:34:25;;;;;;;2.70;2.60;;;23.90;99.90;;;;;;494046;241;29318;-73
2022/06/30 08:36:27;;;;;;;3.17;2.73;;;23.70;99.90;;;;;;494075;241;28879;-71
2022/06/30 08:38:28;;;;;;;2.80;2.20;;;23.60;99.90;;;;;;493972;241;28825;-72
2022/06/30 08:42:48;;;;;;;2.53;2.33;;;23.90;99.90;;;;;;494076;241;28840;-72
2022/06/30 08:47:11;;;;;;;2.83;2.60;;;24.50;99.90;;;;;;494077;241;28815;-71
2022/06/30 08:49:10;;;;;;;2.50;2.40;;;24.60;99.90;;;;;;493891;241;28827;-71
2022/06/30 08:51:12;;;;;;;4.50;3.03;;;24.60;99.90;;;;;;494062;241;28831;-73
2022/06/30 08:53:13;;;;;;;3.13;2.93;;;24.70;99.90;;;;;;494045;241;28860;-70
2022/06/30 08:55:14;;;;;;;6.80;2.63;;;24.80;99.90;;;;;;494096;241;28864;-71
2022/06/30 08:57:15;;;;;;;3.87;3.50;;;24.70;99.90;;;;;;494055;241;29242;-70
2022/06/30 08:59:17;;;;;;;2.77;2.57;;;24.70;99.90;;;;;;494062;241;29253;-71
2022/06/30 09:01:18;;;;;;;2.87;2.63;;;24.50;99.90;;;;;;494072;241;29318;-72
2022/06/30 09:03:19;;;;;;;2.23;2.10;;;24.20;99.90;;;;;;494067;241;29252;-71
2022/06/30 09:05:21;;;;;;;3.33;2.40;;;24.20;99.90;;;;;;494048;241;28899;-70
2022/06/30 09:07:22;;;;;;;2.23;2.13;;;24.20;99.90;;;;;;494069;241;28863;-71
2022/06/30 09:09:23;;;;;;;2.50;2.30;;;24.20;99.90;;;;;;494069;241;28821;-71
2022/06/30 09:11:24;;;;;;;2.87;2.53;;;24.40;99.90;;;;;;494054;241;28883;-72
2022/06/30 09:13:26;;;;;;;2.43;2.23;;;24.60;99.90;;;;;;494034;241;28806;-71
2022/06/30 09:15:27;;;;;;;2.47;2.30;;;24.70;99.90;;;;;;494065;241;28842;-71
2022/06/30 09:17:28;;;;;;;2.23;2.13;;;24.70;99.90;;;;;;493825;241;28886;-71
2022/06/30 09:19:30;;;;;;;2.50;2.30;;;24.60;99.90;;;;;;494076;241;28885;-71
2022/06/30 09:21:32;;;;;;;2.80;2.60;;;24.80;99.90;;;;;;493930;239;29260;-71
2022/06/30 09:23:35;;;;;;;2.27;2.17;;;25.00;99.90;;;;;;493979;241;29275;-71
2022/06/30 09:25:33;;;;;;;2.83;2.13;;;25.20;99.90;;;;;;493842;241;29288;-72
2022/06/30 09:27:34;;;;;;;2.50;2.30;;;25.10;99.90;;;;;;493545;241;30018;-71
2022/06/30 09:29:36;;;;;;;2.60;2.50;;;25.00;99.90;;;;;;494068;241;28784;-71
2022/06/30 09:31:38;;;;;;;2.63;2.43;;;24.80;99.90;;;;;;494061;241;28894;-73
2022/06/30 09:33:44;;;;;;;2.20;2.10;;;24.70;99.90;;;;;;494011;241;28800;-71
2022/06/30 09:35:40;;;;;;;2.47;2.33;;;24.70;99.90;;;;;;493368;241;28930;-72
2022/06/30 09:37:41;;;;;;;2.17;2.07;;;24.60;99.90;;;;;;494000;241;28808;-71
2022/06/30 09:39:42;;;;;;;2.23;2.13;;;24.70;99.90;;;;;;493984;241;28786;-71
2022/06/30 09:41:43;;;;;;;2.17;2.07;;;24.90;99.90;;;;;;494065;241;28891;-71
2022/06/30 09:43:44;;;;;;;2.43;2.23;;;24.80;99.90;;;;;;494062;241;28900;-71
2022/06/30 09:45:46;;;;;;;2.43;2.20;;;24.80;99.90;;;;;;494060;241;28936;-71
2022/06/30 09:47:47;;;;;;;2.20;2.10;;;25.00;99.90;;;;;;494072;241;29350;-71
2022/06/30 09:49:49;;;;;;;2.03;1.93;;;24.90;99.90;;;;;;494076;241;29387;-71
2022/06/30 09:51:49;;;;;;;2.50;2.30;;;25.00;99.90;;;;;;494015;241;29290;-73
2022/06/30 09:53:51;;;;;;;2.13;2.03;;;25.20;99.90;;;;;;494080;241;28940;-71
2022/06/30 09:55:52;;;;;;;2.60;2.20;;;25.30;99.90;;;;;;493991;241;28838;-71
2022/06/30 09:57:53;;;;;;;2.00;1.87;;;25.40;99.90;;;;;;494088;241;28817;-71
2022/06/30 09:59:54;;;;;;;2.37;2.00;;;25.50;99.90;;;;;;494091;241;28831;-71
2022/06/30 10:01:56;;;;;;;2.37;2.27;;;25.40;99.90;;;;;;494064;241;28825;-73
2022/06/30 10:04:00;;;;;;;2.50;2.40;;;25.60;99.90;;;;;;493777;241;28791;-71
2022/06/30 10:06:01;;;;;;;2.67;2.47;;;25.80;99.90;;;;;;494086;241;28805;-70
2022/06/30 10:08:02;;;;;;;2.57;2.37;;;25.80;99.90;;;;;;494075;241;28918;-71
2022/06/30 10:10:04;;;;;;;2.20;2.10;;;25.80;99.90;;;;;;494103;241;28833;-71
2022/06/30 10:12:05;;;;;;;2.33;2.23;;;25.70;99.90;;;;;;494076;241;28892;-71
2022/06/30 10:14:06;;;;;;;2.50;2.30;;;25.70;99.90;;;;;;494101;241;28843;-71
2022/06/30 10:16:07;;;;;;;2.30;2.20;;;25.70;99.90;;;;;;494110;241;28776;-71
2022/06/30 10:18:09;;;;;;;2.50;2.30;;;25.70;99.90;;;;;;494097;241;29363;-71
2022/06/30 10:20:10;;;;;;;2.00;1.90;;;25.70;99.90;;;;;;494099;241;29296;-74
2022/06/30 10:22:11;;;;;;;2.20;2.10;;;25.60;99.90;;;;;;494110;241;29241;-70
2022/06/30 10:24:14;;;;;;;2.70;2.27;;;25.70;99.90;;;;;;494024;241;28855;-71
2022/06/30 10:27:12;;;;;;;2.43;2.20;;;25.80;99.90;;;;;;493983;241;28834;-71
2022/06/30 10:28:15;;;;;;;2.23;2.10;;;25.80;99.90;;;;;;492229;241;28854;-72
2022/06/30 10:30:16;;;;;;;2.30;2.10;;;26.00;99.90;;;;;;494095;241;28938;-73
2022/06/30 10:32:20;;;;;;;4.17;2.20;;;26.00;99.90;;;;;;494073;241;28796;-71
2022/06/30 10:34:19;;;;;;;2.30;1.97;;;26.20;99.90;;;;;;493807;241;28920;-72
2022/06/30 10:36:21;;;;;;;3.27;2.50;;;26.30;99.90;;;;;;494093;241;28806;-71
2022/06/30 10:38:21;;;;;;;2.30;2.20;;;26.50;99.90;;;;;;493955;241;28827;-71
2022/06/30 10:40:22;;;;;;;2.50;2.30;;;26.60;99.90;;;;;;494075;241;28831;-74
2022/06/30 10:42:24;;;;;;;2.50;2.23;;;26.50;99.90;;;;;;494077;241;29318;-71
2022/06/30 10:44:25;;;;;;;2.67;2.50;;;26.30;99.90;;;;;;494080;241;29306;-70